sensor_id;sensor_type;location;lat;lon;timestamp;P1;durP1;ratioP1;P2;durP2;ratioP2
50631;SDS011;49583;45.590;-122.498;2022-08-05T00:01:11;1.50;;;0.40;;
50631;SDS011;49583;45.590;-122.498;2022-08-05T00:04:08;0.30;;;0.30;;
50631;SDS011;49583;45.590;-122.498;2022-08-05T00:07:28;1.80;;;0.40;;
50631;SDS011;49583;45.590;-122.498;2022-08-05T00:10:23;0.30;;;0.30;;
50631;SDS011;49583;45.590;-122.498;2022-08-05T00:13:06;0.80;;;0.40;;
50631;SDS011;49583;45.590;-122.498;2022-08-05T00:15:22;0.70;;;0.30;;
50631;SDS011;49583;45.590;-122.498;2022-08-05T00:18:06;1.70;;;0.40;;
50631;SDS011;49583;45.590;-122.498;2022-08-05T00:26:16;2.20;;;0.40;;
50631;SDS011;49583;45.590;-122.498;2022-08-05T00:28:35;3.00;;;0.50;;
50631;SDS011;49583;45.590;-122.498;2022-08-05T00:30:56;1.90;;;0.30;;
50631;SDS011;49583;45.590;-122.498;2022-08-05T00:33:11;0.50;;;0.50;;
50631;SDS011;49583;45.590;-122.498;2022-08-05T00:35:56;0.40;;;0.40;;
50631;SDS011;49583;45.590;-122.498;2022-08-05T00:38:31;2.90;;;0.30;;
50631;SDS011;49583;45.590;-122.498;2022-08-05T00:40:59;2.00;;;0.40;;
50631;SDS011;49583;45.590;-122.498;2022-08-05T00:43:19;0.60;;;0.30;;
50631;SDS011;49583;45.590;-122.498;2022-08-05T00:46:11;0.40;;;0.30;;
50631;SDS011;49583;45.590;-122.498;2022-08-05T00:54:11;2.00;;;0.50;;
50631;SDS011;49583;45.590;-122.498;2022-08-05T00:56:24;0.40;;;0.30;;
50631;SDS011;49583;45.590;-122.498;2022-08-05T00:58:43;0.40;;;0.40;;
50631;SDS011;49583;45.590;-122.498;2022-08-05T01:01:01;1.30;;;0.40;;
50631;SDS011;49583;45.590;-122.498;2022-08-05T01:03:32;1.10;;;0.50;;
50631;SDS011;49583;45.590;-122.498;2022-08-05T01:06:24;1.10;;;0.40;;
50631;SDS011;49583;45.590;-122.498;2022-08-05T01:09:04;1.00;;;0.50;;
50631;SDS011;49583;45.590;-122.498;2022-08-05T01:11:39;1.80;;;0.40;;
50631;SDS011;49583;45.590;-122.498;2022-08-05T01:14:10;0.40;;;0.40;;
50631;SDS011;49583;45.590;-122.498;2022-08-05T01:17:08;1.20;;;0.30;;
50631;SDS011;49583;45.590;-122.498;2022-08-05T01:19:39;1.90;;;0.60;;
50631;SDS011;49583;45.590;-122.498;2022-08-05T01:22:47;1.10;;;0.40;;
50631;SDS011;49583;45.590;-122.498;2022-08-05T01:37:48;0.40;;;0.30;;
50631;SDS011;49583;45.590;-122.498;2022-08-05T01:43:25;4.00;;;0.40;;
50631;SDS011;49583;45.590;-122.498;2022-08-05T01:45:54;0.50;;;0.40;;
50631;SDS011;49583;45.590;-122.498;2022-08-05T01:48:39;0.40;;;0.30;;
50631;SDS011;49583;45.590;-122.498;2022-08-05T01:51:32;0.40;;;0.30;;
50631;SDS011;49583;45.590;-122.498;2022-08-05T01:53:47;1.00;;;0.40;;
50631;SDS011;49583;45.590;-122.498;2022-08-05T01:56:22;1.10;;;0.40;;
50631;SDS011;49583;45.590;-122.498;2022-08-05T02:02:24;0.40;;;0.30;;
50631;SDS011;49583;45.590;-122.498;2022-08-05T02:04:40;0.70;;;0.40;;
50631;SDS011;49583;45.590;-122.498;2022-08-05T02:10:10;1.00;;;0.30;;
50631;SDS011;49583;45.590;-122.498;2022-08-05T02:15:27;0.50;;;0.30;;
50631;SDS011;49583;45.590;-122.498;2022-08-05T02:17:44;0.60;;;0.30;;
50631;SDS011;49583;45.590;-122.498;2022-08-05T02:20:29;0.60;;;0.40;;
50631;SDS011;49583;45.590;-122.498;2022-08-05T02:23:27;1.00;;;0.40;;
50631;SDS011;49583;45.590;-122.498;2022-08-05T02:26:10;0.80;;;0.30;;
50631;SDS011;49583;45.590;-122.498;2022-08-05T02:28:27;0.60;;;0.30;;
50631;SDS011;49583;45.590;-122.498;2022-08-05T02:30:50;0.70;;;0.30;;
50631;SDS011;49583;45.590;-122.498;2022-08-05T02:33:07;2.20;;;0.40;;
50631;SDS011;49583;45.590;-122.498;2022-08-05T02:38:31;2.20;;;0.40;;
50631;SDS011;49583;45.590;-122.498;2022-08-05T02:40:56;0.90;;;0.40;;
50631;SDS011;49583;45.590;-122.498;2022-08-05T02:43:38;0.30;;;0.30;;
50631;SDS011;49583;45.590;-122.498;2022-08-05T02:46:28;0.90;;;0.40;;
50631;SDS011;49583;45.590;-122.498;2022-08-05T02:49:03;1.40;;;0.50;;
50631;SDS011;49583;45.590;-122.498;2022-08-05T02:51:27;1.40;;;0.40;;
50631;SDS011;49583;45.590;-122.498;2022-08-05T02:54:31;1.00;;;0.30;;
50631;SDS011;49583;45.590;-122.498;2022-08-05T02:57:15;0.20;;;0.20;;
50631;SDS011;49583;45.590;-122.498;2022-08-05T03:00:05;0.90;;;0.50;;
50631;SDS011;49583;45.590;-122.498;2022-08-05T03:03:05;2.10;;;0.40;;
50631;SDS011;49583;45.590;-122.498;2022-08-05T03:06:10;0.70;;;0.40;;
50631;SDS011;49583;45.590;-122.498;2022-08-05T03:12:34;0.40;;;0.30;;
50631;SDS011;49583;45.590;-122.498;2022-08-05T03:15:20;2.10;;;0.40;;
50631;SDS011;49583;45.590;-122.498;2022-08-05T03:17:44;0.60;;;0.50;;
50631;SDS011;49583;45.590;-122.498;2022-08-05T03:20:03;1.30;;;0.40;;
50631;SDS011;49583;45.590;-122.498;2022-08-05T03:22:39;1.80;;;0.40;;
50631;SDS011;49583;45.590;-122.498;2022-08-05T03:25:00;2.80;;;0.40;;
50631;SDS011;49583;45.590;-122.498;2022-08-05T03:28:02;0.50;;;0.40;;
50631;SDS011;49583;45.590;-122.498;2022-08-05T03:30:55;0.80;;;0.40;;
50631;SDS011;49583;45.590;-122.498;2022-08-05T03:38:34;0.30;;;0.30;;
50631;SDS011;49583;45.590;-122.498;2022-08-05T03:41:15;0.60;;;0.40;;
50631;SDS011;49583;45.590;-122.498;2022-08-05T03:43:44;1.10;;;0.50;;
50631;SDS011;49583;45.590;-122.498;2022-08-05T03:46:31;0.60;;;0.30;;
50631;SDS011;49583;45.590;-122.498;2022-08-05T03:49:03;2.00;;;0.50;;
50631;SDS011;49583;45.590;-122.498;2022-08-05T03:52:01;1.80;;;0.50;;
50631;SDS011;49583;45.590;-122.498;2022-08-05T04:01:00;0.50;;;0.50;;
50631;SDS011;49583;45.590;-122.498;2022-08-05T04:04:07;0.90;;;0.50;;
50631;SDS011;49583;45.590;-122.498;2022-08-05T04:06:58;0.50;;;0.50;;
50631;SDS011;49583;45.590;-122.498;2022-08-05T04:09:31;4.10;;;0.90;;
50631;SDS011;49583;45.590;-122.498;2022-08-05T04:14:48;0.60;;;0.40;;
50631;SDS011;49583;45.590;-122.498;2022-08-05T04:20:06;2.40;;;0.30;;
50631;SDS011;49583;45.590;-122.498;2022-08-05T04:22:35;0.70;;;0.50;;
50631;SDS011;49583;45.590;-122.498;2022-08-05T04:27:43;1.70;;;0.40;;
50631;SDS011;49583;45.590;-122.498;2022-08-05T04:30:22;1.30;;;0.40;;
50631;SDS011;49583;45.590;-122.498;2022-08-05T04:32:50;0.60;;;0.60;;
50631;SDS011;49583;45.590;-122.498;2022-08-05T04:35:40;2.30;;;0.40;;
50631;SDS011;49583;45.590;-122.498;2022-08-05T04:38:20;3.50;;;0.50;;
50631;SDS011;49583;45.590;-122.498;2022-08-05T04:41:07;3.10;;;0.70;;
50631;SDS011;49583;45.590;-122.498;2022-08-05T04:46:48;4.50;;;0.50;;
50631;SDS011;49583;45.590;-122.498;2022-08-05T04:49:02;8.20;;;1.50;;
50631;SDS011;49583;45.590;-122.498;2022-08-05T04:56:44;2.20;;;0.60;;
50631;SDS011;49583;45.590;-122.498;2022-08-05T04:59:12;1.20;;;0.40;;
50631;SDS011;49583;45.590;-122.498;2022-08-05T05:01:49;1.00;;;0.40;;
50631;SDS011;49583;45.590;-122.498;2022-08-05T05:04:53;2.40;;;0.70;;
50631;SDS011;49583;45.590;-122.498;2022-08-05T05:10:42;1.00;;;0.40;;
50631;SDS011;49583;45.590;-122.498;2022-08-05T05:12:59;1.30;;;0.50;;
50631;SDS011;49583;45.590;-122.498;2022-08-05T05:15:36;0.70;;;0.40;;
50631;SDS011;49583;45.590;-122.498;2022-08-05T05:18:16;2.80;;;0.70;;
50631;SDS011;49583;45.590;-122.498;2022-08-05T05:24:44;2.80;;;0.40;;
50631;SDS011;49583;45.590;-122.498;2022-08-05T05:27:06;3.00;;;0.70;;
50631;SDS011;49583;45.590;-122.498;2022-08-05T05:29:23;0.90;;;0.40;;
50631;SDS011;49583;45.590;-122.498;2022-08-05T05:32:28;0.50;;;0.50;;
50631;SDS011;49583;45.590;-122.498;2022-08-05T05:34:35;1.00;;;0.50;;
50631;SDS011;49583;45.590;-122.498;2022-08-05T05:42:51;3.50;;;0.40;;
50631;SDS011;49583;45.590;-122.498;2022-08-05T05:45:16;5.30;;;0.60;;
50631;SDS011;49583;45.590;-122.498;2022-08-05T05:47:46;0.80;;;0.50;;
50631;SDS011;49583;45.590;-122.498;2022-08-05T05:50:21;0.70;;;0.50;;
50631;SDS011;49583;45.590;-122.498;2022-08-05T05:53:12;5.70;;;1.30;;
50631;SDS011;49583;45.590;-122.498;2022-08-05T05:56:12;1.60;;;0.40;;
50631;SDS011;49583;45.590;-122.498;2022-08-05T05:58:42;1.40;;;0.40;;
50631;SDS011;49583;45.590;-122.498;2022-08-05T06:04:11;1.20;;;0.60;;
50631;SDS011;49583;45.590;-122.498;2022-08-05T06:11:45;0.40;;;0.40;;
50631;SDS011;49583;45.590;-122.498;2022-08-05T06:14:18;0.50;;;0.40;;
50631;SDS011;49583;45.590;-122.498;2022-08-05T06:20:20;0.50;;;0.50;;
50631;SDS011;49583;45.590;-122.498;2022-08-05T06:22:55;0.90;;;0.40;;
50631;SDS011;49583;45.590;-122.498;2022-08-05T06:25:10;2.30;;;0.70;;
50631;SDS011;49583;45.590;-122.498;2022-08-05T06:28:30;0.70;;;0.40;;
50631;SDS011;49583;45.590;-122.498;2022-08-05T06:31:12;0.60;;;0.40;;
50631;SDS011;49583;45.590;-122.498;2022-08-05T06:33:27;3.00;;;0.50;;
50631;SDS011;49583;45.590;-122.498;2022-08-05T06:36:23;0.50;;;0.40;;
50631;SDS011;49583;45.590;-122.498;2022-08-05T06:38:52;0.80;;;0.50;;
50631;SDS011;49583;45.590;-122.498;2022-08-05T06:41:23;0.50;;;0.40;;
50631;SDS011;49583;45.590;-122.498;2022-08-05T06:43:48;1.40;;;0.40;;
50631;SDS011;49583;45.590;-122.498;2022-08-05T06:46:33;0.90;;;0.40;;
50631;SDS011;49583;45.590;-122.498;2022-08-05T06:48:54;1.10;;;0.40;;
50631;SDS011;49583;45.590;-122.498;2022-08-05T06:51:15;0.50;;;0.50;;
50631;SDS011;49583;45.590;-122.498;2022-08-05T06:56:50;1.70;;;0.70;;
50631;SDS011;49583;45.590;-122.498;2022-08-05T06:59:19;1.20;;;0.40;;
50631;SDS011;49583;45.590;-122.498;2022-08-05T07:01:53;0.70;;;0.50;;
50631;SDS011;49583;45.590;-122.498;2022-08-05T07:04:21;1.40;;;0.60;;
50631;SDS011;49583;45.590;-122.498;2022-08-05T07:06:41;0.80;;;0.40;;
50631;SDS011;49583;45.590;-122.498;2022-08-05T07:09:51;0.40;;;0.40;;
50631;SDS011;49583;45.590;-122.498;2022-08-05T07:12:02;1.70;;;0.60;;
50631;SDS011;49583;45.590;-122.498;2022-08-05T07:14:16;0.70;;;0.60;;
50631;SDS011;49583;45.590;-122.498;2022-08-05T07:17:07;1.10;;;0.50;;
50631;SDS011;49583;45.590;-122.498;2022-08-05T07:25:35;0.90;;;0.50;;
50631;SDS011;49583;45.590;-122.498;2022-08-05T07:30:42;0.50;;;0.40;;
50631;SDS011;49583;45.590;-122.498;2022-08-05T07:33:18;1.80;;;0.50;;
50631;SDS011;49583;45.590;-122.498;2022-08-05T07:35:40;1.80;;;0.50;;
50631;SDS011;49583;45.590;-122.498;2022-08-05T07:38:16;2.60;;;0.70;;
50631;SDS011;49583;45.590;-122.498;2022-08-05T07:40:58;0.70;;;0.50;;
50631;SDS011;49583;45.590;-122.498;2022-08-05T07:43:39;1.50;;;0.50;;
50631;SDS011;49583;45.590;-122.498;2022-08-05T07:45:50;1.60;;;0.50;;
50631;SDS011;49583;45.590;-122.498;2022-08-05T07:48:24;0.50;;;0.50;;
50631;SDS011;49583;45.590;-122.498;2022-08-05T07:51:03;1.30;;;0.60;;
50631;SDS011;49583;45.590;-122.498;2022-08-05T07:59:56;1.30;;;0.70;;
50631;SDS011;49583;45.590;-122.498;2022-08-05T08:02:21;1.60;;;0.70;;
50631;SDS011;49583;45.590;-122.498;2022-08-05T08:05:05;0.70;;;0.70;;
50631;SDS011;49583;45.590;-122.498;2022-08-05T08:07:34;1.50;;;0.50;;
50631;SDS011;49583;45.590;-122.498;2022-08-05T08:16:42;2.10;;;0.60;;
50631;SDS011;49583;45.590;-122.498;2022-08-05T08:19:00;1.50;;;0.60;;
50631;SDS011;49583;45.590;-122.498;2022-08-05T08:21:39;1.30;;;0.60;;
50631;SDS011;49583;45.590;-122.498;2022-08-05T08:23:57;1.00;;;0.50;;
50631;SDS011;49583;45.590;-122.498;2022-08-05T08:26:42;4.90;;;0.80;;
50631;SDS011;49583;45.590;-122.498;2022-08-05T08:29:02;1.60;;;0.70;;
50631;SDS011;49583;45.590;-122.498;2022-08-05T08:31:35;1.40;;;0.50;;
50631;SDS011;49583;45.590;-122.498;2022-08-05T08:34:07;0.90;;;0.60;;
50631;SDS011;49583;45.590;-122.498;2022-08-05T08:36:17;2.10;;;0.60;;
50631;SDS011;49583;45.590;-122.498;2022-08-05T08:39:37;2.20;;;0.70;;
50631;SDS011;49583;45.590;-122.498;2022-08-05T08:42:07;1.40;;;0.80;;
50631;SDS011;49583;45.590;-122.498;2022-08-05T08:45:02;1.30;;;0.60;;
50631;SDS011;49583;45.590;-122.498;2022-08-05T08:47:29;1.50;;;0.60;;
50631;SDS011;49583;45.590;-122.498;2022-08-05T08:49:59;1.90;;;0.60;;
50631;SDS011;49583;45.590;-122.498;2022-08-05T08:52:52;1.50;;;0.70;;
50631;SDS011;49583;45.590;-122.498;2022-08-05T08:55:18;5.50;;;0.80;;
50631;SDS011;49583;45.590;-122.498;2022-08-05T08:58:15;0.90;;;0.50;;
50631;SDS011;49583;45.590;-122.498;2022-08-05T09:00:52;0.80;;;0.70;;
50631;SDS011;49583;45.590;-122.498;2022-08-05T09:03:24;1.30;;;0.80;;
50631;SDS011;49583;45.590;-122.498;2022-08-05T09:05:54;2.60;;;0.70;;
50631;SDS011;49583;45.590;-122.498;2022-08-05T09:08:33;1.20;;;0.70;;
50631;SDS011;49583;45.590;-122.498;2022-08-05T09:11:05;2.10;;;0.70;;
50631;SDS011;49583;45.590;-122.498;2022-08-05T09:13:23;1.40;;;0.70;;
50631;SDS011;49583;45.590;-122.498;2022-08-05T09:15:45;1.30;;;0.70;;
50631;SDS011;49583;45.590;-122.498;2022-08-05T09:18:02;0.80;;;0.70;;
50631;SDS011;49583;45.590;-122.498;2022-08-05T09:23:34;2.60;;;0.70;;
50631;SDS011;49583;45.590;-122.498;2022-08-05T09:25:52;1.20;;;0.80;;
50631;SDS011;49583;45.590;-122.498;2022-08-05T09:28:40;1.30;;;0.90;;
50631;SDS011;49583;45.590;-122.498;2022-08-05T09:31:18;1.60;;;0.70;;
50631;SDS011;49583;45.590;-122.498;2022-08-05T09:36:14;2.10;;;0.70;;
50631;SDS011;49583;45.590;-122.498;2022-08-05T09:38:26;1.50;;;0.70;;
50631;SDS011;49583;45.590;-122.498;2022-08-05T09:40:37;0.80;;;0.60;;
50631;SDS011;49583;45.590;-122.498;2022-08-05T09:43:26;4.10;;;0.90;;
50631;SDS011;49583;45.590;-122.498;2022-08-05T09:45:45;1.90;;;0.90;;
50631;SDS011;49583;45.590;-122.498;2022-08-05T09:51:32;1.40;;;1.00;;
50631;SDS011;49583;45.590;-122.498;2022-08-05T09:53:48;1.10;;;0.70;;
50631;SDS011;49583;45.590;-122.498;2022-08-05T09:56:12;1.60;;;0.90;;
50631;SDS011;49583;45.590;-122.498;2022-08-05T09:59:11;2.10;;;0.90;;
50631;SDS011;49583;45.590;-122.498;2022-08-05T10:01:32;1.00;;;0.60;;
50631;SDS011;49583;45.590;-122.498;2022-08-05T10:04:10;1.20;;;0.80;;
50631;SDS011;49583;45.590;-122.498;2022-08-05T10:06:55;0.80;;;0.60;;
50631;SDS011;49583;45.590;-122.498;2022-08-05T10:12:30;2.20;;;0.90;;
50631;SDS011;49583;45.590;-122.498;2022-08-05T10:15:17;0.80;;;0.60;;
50631;SDS011;49583;45.590;-122.498;2022-08-05T10:17:33;1.70;;;0.70;;
50631;SDS011;49583;45.590;-122.498;2022-08-05T10:19:46;1.10;;;0.80;;
50631;SDS011;49583;45.590;-122.498;2022-08-05T10:22:17;6.40;;;1.00;;
50631;SDS011;49583;45.590;-122.498;2022-08-05T10:24:58;0.60;;;0.50;;
50631;SDS011;49583;45.590;-122.498;2022-08-05T10:27:20;0.90;;;0.70;;
50631;SDS011;49583;45.590;-122.498;2022-08-05T10:30:20;2.60;;;0.50;;
50631;SDS011;49583;45.590;-122.498;2022-08-05T10:32:50;2.10;;;1.10;;
50631;SDS011;49583;45.590;-122.498;2022-08-05T10:35:22;0.80;;;0.70;;
50631;SDS011;49583;45.590;-122.498;2022-08-05T10:45:53;2.40;;;1.00;;
50631;SDS011;49583;45.590;-122.498;2022-08-05T10:51:21;3.10;;;1.10;;
50631;SDS011;49583;45.590;-122.498;2022-08-05T10:56:43;3.50;;;0.80;;
50631;SDS011;49583;45.590;-122.498;2022-08-05T11:01:35;1.80;;;0.80;;
50631;SDS011;49583;45.590;-122.498;2022-08-05T11:04:24;1.40;;;0.90;;
50631;SDS011;49583;45.590;-122.498;2022-08-05T11:06:34;1.80;;;0.70;;
50631;SDS011;49583;45.590;-122.498;2022-08-05T11:09:11;0.70;;;0.70;;
50631;SDS011;49583;45.590;-122.498;2022-08-05T11:14:33;1.30;;;0.70;;
50631;SDS011;49583;45.590;-122.498;2022-08-05T11:19:54;1.00;;;0.90;;
50631;SDS011;49583;45.590;-122.498;2022-08-05T11:22:38;0.90;;;0.70;;
50631;SDS011;49583;45.590;-122.498;2022-08-05T11:36:02;7.90;;;1.00;;
50631;SDS011;49583;45.590;-122.498;2022-08-05T11:39:08;4.00;;;1.20;;
50631;SDS011;49583;45.590;-122.498;2022-08-05T11:40:58;9.30;;;1.00;;
50631;SDS011;49583;45.590;-122.498;2022-08-05T11:43:36;4.00;;;1.40;;
50631;SDS011;49583;45.590;-122.498;2022-08-05T11:48:42;1.40;;;0.80;;
50631;SDS011;49583;45.590;-122.498;2022-08-05T11:50:57;1.30;;;0.80;;
50631;SDS011;49583;45.590;-122.498;2022-08-05T11:53:04;1.30;;;0.70;;
50631;SDS011;49583;45.590;-122.498;2022-08-05T11:55:16;1.40;;;0.80;;
50631;SDS011;49583;45.590;-122.498;2022-08-05T12:00:27;0.70;;;0.70;;
50631;SDS011;49583;45.590;-122.498;2022-08-05T12:02:47;1.10;;;0.80;;
50631;SDS011;49583;45.590;-122.498;2022-08-05T12:04:54;2.50;;;0.70;;
50631;SDS011;49583;45.590;-122.498;2022-08-05T12:07:03;1.10;;;0.90;;
50631;SDS011;49583;45.590;-122.498;2022-08-05T12:09:13;2.20;;;1.00;;
50631;SDS011;49583;45.590;-122.498;2022-08-05T12:11:42;1.40;;;0.70;;
50631;SDS011;49583;45.590;-122.498;2022-08-05T12:16:07;2.30;;;0.90;;
50631;SDS011;49583;45.590;-122.498;2022-08-05T12:18:27;2.90;;;0.70;;
50631;SDS011;49583;45.590;-122.498;2022-08-05T12:20:42;0.70;;;0.70;;
50631;SDS011;49583;45.590;-122.498;2022-08-05T12:22:49;2.00;;;1.20;;
50631;SDS011;49583;45.590;-122.498;2022-08-05T12:24:56;5.30;;;1.00;;
50631;SDS011;49583;45.590;-122.498;2022-08-05T12:27:04;2.60;;;1.00;;
50631;SDS011;49583;45.590;-122.498;2022-08-05T12:29:28;4.00;;;1.00;;
50631;SDS011;49583;45.590;-122.498;2022-08-05T12:31:46;1.10;;;0.80;;
50631;SDS011;49583;45.590;-122.498;2022-08-05T12:36:05;1.10;;;1.00;;
50631;SDS011;49583;45.590;-122.498;2022-08-05T12:38:12;2.00;;;0.90;;
50631;SDS011;49583;45.590;-122.498;2022-08-05T12:40:34;1.40;;;0.90;;
50631;SDS011;49583;45.590;-122.498;2022-08-05T12:43:08;2.00;;;0.90;;
50631;SDS011;49583;45.590;-122.498;2022-08-05T12:45:24;3.10;;;0.90;;
50631;SDS011;49583;45.590;-122.498;2022-08-05T12:47:56;2.50;;;1.10;;
50631;SDS011;49583;45.590;-122.498;2022-08-05T12:50:26;1.60;;;0.90;;
50631;SDS011;49583;45.590;-122.498;2022-08-05T12:53:18;3.40;;;1.20;;
50631;SDS011;49583;45.590;-122.498;2022-08-05T12:55:49;2.00;;;1.10;;
50631;SDS011;49583;45.590;-122.498;2022-08-05T12:58:05;1.00;;;0.80;;
50631;SDS011;49583;45.590;-122.498;2022-08-05T13:00:54;2.50;;;1.00;;
50631;SDS011;49583;45.590;-122.498;2022-08-05T13:03:24;2.20;;;1.00;;
50631;SDS011;49583;45.590;-122.498;2022-08-05T13:05:36;2.40;;;1.00;;
50631;SDS011;49583;45.590;-122.498;2022-08-05T13:08:09;4.40;;;1.10;;
50631;SDS011;49583;45.590;-122.498;2022-08-05T13:10:33;1.80;;;1.20;;
50631;SDS011;49583;45.590;-122.498;2022-08-05T13:13:17;1.60;;;1.20;;
50631;SDS011;49583;45.590;-122.498;2022-08-05T13:15:56;2.10;;;0.90;;
50631;SDS011;49583;45.590;-122.498;2022-08-05T13:21:54;1.90;;;1.20;;
50631;SDS011;49583;45.590;-122.498;2022-08-05T13:24:05;4.10;;;1.10;;
50631;SDS011;49583;45.590;-122.498;2022-08-05T13:26:12;6.00;;;1.00;;
50631;SDS011;49583;45.590;-122.498;2022-08-05T13:28:22;3.30;;;1.00;;
50631;SDS011;49583;45.590;-122.498;2022-08-05T13:30:32;2.70;;;1.00;;
50631;SDS011;49583;45.590;-122.498;2022-08-05T13:32:42;2.10;;;1.00;;
50631;SDS011;49583;45.590;-122.498;2022-08-05T13:35:04;2.80;;;1.00;;
50631;SDS011;49583;45.590;-122.498;2022-08-05T13:37:11;1.20;;;0.90;;
50631;SDS011;49583;45.590;-122.498;2022-08-05T13:39:40;2.30;;;1.00;;
50631;SDS011;49583;45.590;-122.498;2022-08-05T13:42:07;1.60;;;1.00;;
50631;SDS011;49583;45.590;-122.498;2022-08-05T13:44:24;1.20;;;1.00;;
50631;SDS011;49583;45.590;-122.498;2022-08-05T13:46:34;2.40;;;1.00;;
50631;SDS011;49583;45.590;-122.498;2022-08-05T13:49:11;2.00;;;1.00;;
50631;SDS011;49583;45.590;-122.498;2022-08-05T13:51:27;3.00;;;1.50;;
50631;SDS011;49583;45.590;-122.498;2022-08-05T13:53:43;3.10;;;1.30;;
50631;SDS011;49583;45.590;-122.498;2022-08-05T13:55:51;3.90;;;0.90;;
50631;SDS011;49583;45.590;-122.498;2022-08-05T13:58:03;1.40;;;1.30;;
50631;SDS011;49583;45.590;-122.498;2022-08-05T14:00:14;1.20;;;0.90;;
50631;SDS011;49583;45.590;-122.498;2022-08-05T14:02:20;1.20;;;0.90;;
50631;SDS011;49583;45.590;-122.498;2022-08-05T14:04:42;2.60;;;1.40;;
50631;SDS011;49583;45.590;-122.498;2022-08-05T14:07:15;1.70;;;1.20;;
50631;SDS011;49583;45.590;-122.498;2022-08-05T14:09:42;2.70;;;1.60;;
50631;SDS011;49583;45.590;-122.498;2022-08-05T14:12:02;1.50;;;1.10;;
50631;SDS011;49583;45.590;-122.498;2022-08-05T14:14:50;2.40;;;1.10;;
50631;SDS011;49583;45.590;-122.498;2022-08-05T14:17:01;2.30;;;1.10;;
50631;SDS011;49583;45.590;-122.498;2022-08-05T14:19:24;3.70;;;1.00;;
50631;SDS011;49583;45.590;-122.498;2022-08-05T14:21:32;1.30;;;1.20;;
50631;SDS011;49583;45.590;-122.498;2022-08-05T14:24:10;1.70;;;1.10;;
50631;SDS011;49583;45.590;-122.498;2022-08-05T14:26:22;1.50;;;1.20;;
50631;SDS011;49583;45.590;-122.498;2022-08-05T14:31:19;2.50;;;1.70;;
50631;SDS011;49583;45.590;-122.498;2022-08-05T14:33:53;3.90;;;1.20;;
50631;SDS011;49583;45.590;-122.498;2022-08-05T14:36:04;1.30;;;1.20;;
50631;SDS011;49583;45.590;-122.498;2022-08-05T14:38:11;2.20;;;1.40;;
50631;SDS011;49583;45.590;-122.498;2022-08-05T14:40:37;3.10;;;1.50;;
50631;SDS011;49583;45.590;-122.498;2022-08-05T14:42:58;2.50;;;1.80;;
50631;SDS011;49583;45.590;-122.498;2022-08-05T14:45:17;2.40;;;1.70;;
50631;SDS011;49583;45.590;-122.498;2022-08-05T14:47:25;4.30;;;1.80;;
50631;SDS011;49583;45.590;-122.498;2022-08-05T14:50:14;4.00;;;1.80;;
50631;SDS011;49583;45.590;-122.498;2022-08-05T14:52:33;2.00;;;1.70;;
50631;SDS011;49583;45.590;-122.498;2022-08-05T14:58:11;2.20;;;1.60;;
50631;SDS011;49583;45.590;-122.498;2022-08-05T15:00:51;4.70;;;1.70;;
50631;SDS011;49583;45.590;-122.498;2022-08-05T15:03:23;3.40;;;1.50;;
50631;SDS011;49583;45.590;-122.498;2022-08-05T15:05:29;2.50;;;1.20;;
50631;SDS011;49583;45.590;-122.498;2022-08-05T15:11:06;2.20;;;1.70;;
50631;SDS011;49583;45.590;-122.498;2022-08-05T15:14:17;3.20;;;1.20;;
50631;SDS011;49583;45.590;-122.498;2022-08-05T15:19:58;3.00;;;1.60;;
50631;SDS011;49583;45.590;-122.498;2022-08-05T15:22:06;3.50;;;1.10;;
50631;SDS011;49583;45.590;-122.498;2022-08-05T15:24:16;3.40;;;1.40;;
50631;SDS011;49583;45.590;-122.498;2022-08-05T15:26:36;1.50;;;1.10;;
50631;SDS011;49583;45.590;-122.498;2022-08-05T15:28:46;4.70;;;1.40;;
50631;SDS011;49583;45.590;-122.498;2022-08-05T15:30:59;5.40;;;0.90;;
50631;SDS011;49583;45.590;-122.498;2022-08-05T15:33:29;3.00;;;1.20;;
50631;SDS011;49583;45.590;-122.498;2022-08-05T15:35:59;3.50;;;1.20;;
50631;SDS011;49583;45.590;-122.498;2022-08-05T15:38:21;2.70;;;0.90;;
50631;SDS011;49583;45.590;-122.498;2022-08-05T15:40:50;2.20;;;1.00;;
50631;SDS011;49583;45.590;-122.498;2022-08-05T15:43:20;1.40;;;1.20;;
50631;SDS011;49583;45.590;-122.498;2022-08-05T15:45:43;1.70;;;1.10;;
50631;SDS011;49583;45.590;-122.498;2022-08-05T15:48:21;3.00;;;1.10;;
50631;SDS011;49583;45.590;-122.498;2022-08-05T15:50:49;8.40;;;1.30;;
50631;SDS011;49583;45.590;-122.498;2022-08-05T15:52:59;2.80;;;1.00;;
50631;SDS011;49583;45.590;-122.498;2022-08-05T15:55:40;2.10;;;1.30;;
50631;SDS011;49583;45.590;-122.498;2022-08-05T15:58:43;5.40;;;1.20;;
50631;SDS011;49583;45.590;-122.498;2022-08-05T16:04:25;1.80;;;0.70;;
50631;SDS011;49583;45.590;-122.498;2022-08-05T16:07:12;2.60;;;1.00;;
50631;SDS011;49583;45.590;-122.498;2022-08-05T16:09:37;1.00;;;0.90;;
50631;SDS011;49583;45.590;-122.498;2022-08-05T16:11:51;2.50;;;0.90;;
50631;SDS011;49583;45.590;-122.498;2022-08-05T16:14:05;3.30;;;1.10;;
50631;SDS011;49583;45.590;-122.498;2022-08-05T16:16:35;2.20;;;0.90;;
50631;SDS011;49583;45.590;-122.498;2022-08-05T16:24:52;5.80;;;1.60;;
50631;SDS011;49583;45.590;-122.498;2022-08-05T16:27:16;3.20;;;1.30;;
50631;SDS011;49583;45.590;-122.498;2022-08-05T16:30:14;2.40;;;1.00;;
50631;SDS011;49583;45.590;-122.498;2022-08-05T16:35:59;1.10;;;0.90;;
50631;SDS011;49583;45.590;-122.498;2022-08-05T16:38:15;1.60;;;1.20;;
50631;SDS011;49583;45.590;-122.498;2022-08-05T16:40:52;4.10;;;0.90;;
50631;SDS011;49583;45.590;-122.498;2022-08-05T16:44:26;2.30;;;0.90;;
50631;SDS011;49583;45.590;-122.498;2022-08-05T16:46:43;1.30;;;1.20;;
50631;SDS011;49583;45.590;-122.498;2022-08-05T16:49:36;1.30;;;1.10;;
50631;SDS011;49583;45.590;-122.498;2022-08-05T16:52:10;2.40;;;1.00;;
50631;SDS011;49583;45.590;-122.498;2022-08-05T16:54:31;1.00;;;0.90;;
50631;SDS011;49583;45.590;-122.498;2022-08-05T17:02:42;5.30;;;0.90;;
50631;SDS011;49583;45.590;-122.498;2022-08-05T17:08:17;1.80;;;1.00;;
50631;SDS011;49583;45.590;-122.498;2022-08-05T17:11:06;1.00;;;0.80;;
50631;SDS011;49583;45.590;-122.498;2022-08-05T17:15:51;1.30;;;0.70;;
50631;SDS011;49583;45.590;-122.498;2022-08-05T17:18:52;7.30;;;1.00;;
50631;SDS011;49583;45.590;-122.498;2022-08-05T17:24:49;2.30;;;0.80;;
50631;SDS011;49583;45.590;-122.498;2022-08-05T17:27:04;1.80;;;0.80;;
50631;SDS011;49583;45.590;-122.498;2022-08-05T17:29:34;1.40;;;0.70;;
50631;SDS011;49583;45.590;-122.498;2022-08-05T17:32:13;3.30;;;0.80;;
50631;SDS011;49583;45.590;-122.498;2022-08-05T17:34:56;0.90;;;0.80;;
50631;SDS011;49583;45.590;-122.498;2022-08-05T17:37:16;1.60;;;0.80;;
50631;SDS011;49583;45.590;-122.498;2022-08-05T17:40:05;0.90;;;0.80;;
50631;SDS011;49583;45.590;-122.498;2022-08-05T17:47:56;0.90;;;0.80;;
50631;SDS011;49583;45.590;-122.498;2022-08-05T17:52:49;1.20;;;0.80;;
50631;SDS011;49583;45.590;-122.498;2022-08-05T17:55:15;1.20;;;0.60;;
50631;SDS011;49583;45.590;-122.498;2022-08-05T17:57:49;1.80;;;0.60;;
50631;SDS011;49583;45.590;-122.498;2022-08-05T18:00:07;3.10;;;1.30;;
50631;SDS011;49583;45.590;-122.498;2022-08-05T18:02:55;1.60;;;0.70;;
50631;SDS011;49583;45.590;-122.498;2022-08-05T18:08:39;1.70;;;0.80;;
50631;SDS011;49583;45.590;-122.498;2022-08-05T18:10:55;1.30;;;0.70;;
50631;SDS011;49583;45.590;-122.498;2022-08-05T18:13:19;3.00;;;0.60;;
50631;SDS011;49583;45.590;-122.498;2022-08-05T18:21:32;1.20;;;0.70;;